createdAt,value
2024-01-17T00:00:11.153Z,98343.49
2024-01-17T00:01:11.091Z,98341.13
2024-01-17T00:02:11.068Z,98343.79
2024-01-17T00:03:11.120Z,98339.28
2024-01-17T00:04:11.069Z,98338.19
2024-01-17T00:05:11.068Z,98335.42
2024-01-17T00:06:11.098Z,98333.60
2024-01-17T00:07:11.130Z,98336.03
2024-01-17T00:08:11.115Z,98337.53
2024-01-17T00:09:11.142Z,98333.96
2024-01-17T00:10:11.075Z,98340.38
2024-01-17T00:11:11.074Z,98335.28
2024-01-17T00:12:11.137Z,98334.82
2024-01-17T00:13:11.063Z,98332.90
2024-01-17T00:14:11.072Z,98333.57
2024-01-17T00:15:11.094Z,98339.50
2024-01-17T00:16:11.066Z,98334.45
2024-01-17T00:17:11.073Z,98335.04
2024-01-17T00:18:11.169Z,98330.96
2024-01-17T00:19:11.178Z,98331.42
2024-01-17T00:20:11.080Z,98331.34
2024-01-17T00:21:11.079Z,98333.27
2024-01-17T00:22:11.068Z,98326.98
2024-01-17T00:23:11.073Z,98327.95
2024-01-17T00:24:11.084Z,98327.89
2024-01-17T00:25:11.064Z,98328.20
2024-01-17T00:26:11.081Z,98323.93
2024-01-17T00:27:11.070Z,98323.12
2024-01-17T00:28:11.082Z,98316.88
2024-01-17T00:29:11.067Z,98321.50
2024-01-17T00:30:11.229Z,98323.91
2024-01-17T00:31:11.089Z,98320.41
2024-01-17T00:32:11.077Z,98320.74
2024-01-17T00:33:11.173Z,98320.53
2024-01-17T00:34:11.183Z,98317.20
2024-01-17T00:35:11.085Z,98313.03
2024-01-17T00:36:11.160Z,98313.70
2024-01-17T00:37:11.069Z,98312.27
2024-01-17T00:38:11.074Z,98311.19
2024-01-17T00:39:11.075Z,98308.02
2024-01-17T00:40:11.070Z,98303.49
2024-01-17T00:41:11.100Z,98306.51
2024-01-17T00:42:11.086Z,98305.43
2024-01-17T00:43:11.073Z,98305.41
2024-01-17T00:44:11.074Z,98302.20
2024-01-17T00:45:11.117Z,98306.73
2024-01-17T00:46:11.078Z,98302.10
2024-01-17T00:47:11.065Z,98299.98
2024-01-17T00:48:11.217Z,98301.44
2024-01-17T00:49:11.145Z,98298.37
2024-01-17T00:50:11.081Z,98299.96
2024-01-17T00:51:11.190Z,98297.95
2024-01-17T00:52:11.145Z,98299.41
2024-01-17T00:53:11.061Z,98296.34
2024-01-17T00:54:11.149Z,98298.64
2024-01-17T00:55:11.064Z,98298.16
2024-01-17T00:56:11.064Z,98301.67
2024-01-17T00:57:11.137Z,98297.51
2024-01-17T00:58:11.070Z,98296.23
2024-01-17T00:59:11.089Z,98295.59
2024-01-17T01:00:11.313Z,98296.41
2024-01-17T01:01:11.133Z,98298.26
2024-01-17T01:02:11.071Z,98296.93
2024-01-17T01:03:11.176Z,98297.05
2024-01-17T01:04:12.103Z,98293.87
2024-01-17T01:05:11.073Z,98293.88
2024-01-17T01:06:11.123Z,98291.48
2024-01-17T01:07:11.082Z,98292.03
2024-01-17T01:08:11.097Z,98294.11
2024-01-17T01:09:11.159Z,98292.12
2024-01-17T01:10:11.074Z,98291.05
2024-01-17T01:11:11.084Z,98289.18
2024-01-17T01:12:11.110Z,98286.24
2024-01-17T01:13:11.066Z,98284.41
2024-01-17T01:14:11.086Z,98290.49
2024-01-17T01:15:11.154Z,98286.54
2024-01-17T01:16:11.078Z,98286.88
2024-01-17T01:17:11.078Z,98283.75
2024-01-17T01:18:11.207Z,98283.29
2024-01-17T01:19:11.297Z,98281.77
2024-01-17T01:20:11.083Z,98282.00
2024-01-17T01:21:11.125Z,98279.59
2024-01-17T01:22:11.074Z,98278.88
2024-01-17T01:23:11.090Z,98277.23
2024-01-17T01:24:11.117Z,98272.16
2024-01-17T01:25:11.096Z,98268.95
2024-01-17T01:26:11.096Z,98269.25
2024-01-17T01:27:11.154Z,98273.54
2024-01-17T01:28:11.104Z,98274.09
2024-01-17T01:29:11.098Z,98275.14
2024-01-17T01:30:11.312Z,98271.39
2024-01-17T01:31:11.211Z,98273.25
2024-01-17T01:32:11.099Z,98273.29
2024-01-17T01:33:11.252Z,98276.27
2024-01-17T01:34:11.119Z,98276.44
2024-01-17T01:35:11.089Z,98272.39
2024-01-17T01:36:11.117Z,98277.15
2024-01-17T01:37:11.072Z,98276.61
2024-01-17T01:38:11.082Z,98271.84
2024-01-17T01:39:11.117Z,98272.28
2024-01-17T01:40:12.103Z,98271.82
2024-01-17T01:41:11.076Z,98270.79
2024-01-17T01:42:11.119Z,98268.98
2024-01-17T01:43:19.094Z,98265.39
2024-01-17T01:44:11.076Z,98265.45
2024-01-17T01:45:11.144Z,98260.31
2024-01-17T01:46:18.108Z,98258.12
2024-01-17T01:47:12.077Z,98256.67
2024-01-17T01:48:11.253Z,98250.53
2024-01-17T01:49:11.210Z,98245.84
2024-01-17T01:50:11.068Z,98244.21
2024-01-17T01:51:11.178Z,98238.94
2024-01-17T01:52:11.087Z,98238.05
2024-01-17T01:53:11.069Z,98238.10
2024-01-17T01:54:11.113Z,98230.85
2024-01-17T01:55:11.069Z,98230.95
2024-01-17T01:56:11.065Z,98232.34
2024-01-17T01:57:11.175Z,98235.39
2024-01-17T01:58:11.073Z,98235.29
2024-01-17T01:59:11.091Z,98233.65
2024-01-17T02:00:11.151Z,98237.87
2024-01-17T02:01:11.140Z,98234.05
2024-01-17T02:02:11.068Z,98235.20
2024-01-17T02:03:11.149Z,98236.91
2024-01-17T02:04:11.207Z,98232.86
2024-01-17T02:05:11.184Z,98231.44
2024-01-17T02:06:11.091Z,98232.30
2024-01-17T02:07:11.075Z,98228.26
2024-01-17T02:08:11.064Z,98224.97
2024-01-17T02:09:11.120Z,98223.39
2024-01-17T02:10:11.072Z,98220.76
2024-01-17T02:11:11.076Z,98217.25
2024-01-17T02:12:11.078Z,98215.92
2024-01-17T02:13:11.109Z,98213.95
2024-01-17T02:14:11.063Z,98210.32
2024-01-17T02:15:11.085Z,98207.50
2024-01-17T02:16:11.064Z,98211.09
2024-01-17T02:17:11.073Z,98208.45
2024-01-17T02:18:11.192Z,98211.70
2024-01-17T02:19:11.087Z,98207.92
2024-01-17T02:20:11.065Z,98207.21
2024-01-17T02:21:11.117Z,98203.20
2024-01-17T02:22:11.067Z,98201.28
2024-01-17T02:23:19.059Z,98198.82
2024-01-17T02:24:15.132Z,98194.83
2024-01-17T02:25:11.072Z,98195.34
2024-01-17T02:26:11.060Z,98194.28
2024-01-17T02:27:11.104Z,98192.62
2024-01-17T02:28:11.068Z,98189.61
2024-01-17T02:29:11.075Z,98192.79
2024-01-17T02:30:11.166Z,98190.00
2024-01-17T02:31:11.188Z,98188.16
2024-01-17T02:32:11.065Z,98188.54
2024-01-17T02:33:11.222Z,98183.68
2024-01-17T02:34:11.307Z,98183.74
2024-01-17T02:35:11.069Z,98185.03
2024-01-17T02:36:11.140Z,98184.39
2024-01-17T02:37:15.076Z,98182.14
2024-01-17T02:38:11.058Z,98181.56
2024-01-17T02:39:11.122Z,98178.86
2024-01-17T02:40:11.070Z,98179.17
2024-01-17T02:41:11.069Z,98175.63
2024-01-17T02:42:11.100Z,98174.66
2024-01-17T02:43:11.071Z,98172.67
2024-01-17T02:44:11.073Z,98168.33
2024-01-17T02:45:11.095Z,98161.75
2024-01-17T02:46:11.062Z,98164.22
2024-01-17T02:47:11.071Z,98161.59
2024-01-17T02:48:11.131Z,98156.97
2024-01-17T02:49:11.168Z,98153.16
2024-01-17T02:50:11.064Z,98153.12
2024-01-17T02:51:11.134Z,98155.95
2024-01-17T02:52:11.071Z,98155.80
2024-01-17T02:53:11.064Z,98155.92
2024-01-17T02:54:11.130Z,98155.50
2024-01-17T02:55:11.074Z,98154.05
2024-01-17T02:56:11.064Z,98151.32
2024-01-17T02:57:11.167Z,98151.38
2024-01-17T02:58:11.090Z,98149.30
2024-01-17T02:59:11.060Z,98150.36
2024-01-17T03:00:11.218Z,98142.88
2024-01-17T03:01:11.117Z,98142.16
2024-01-17T03:02:11.060Z,98137.69
2024-01-17T03:03:11.077Z,98135.98
2024-01-17T03:04:11.071Z,98135.06
2024-01-17T03:05:11.123Z,98132.92
2024-01-17T03:06:11.123Z,98134.12
2024-01-17T03:07:11.283Z,98128.49
2024-01-17T03:08:11.074Z,98125.25
2024-01-17T03:09:11.129Z,98124.82
2024-01-17T03:10:11.060Z,98122.77
2024-01-17T03:11:11.058Z,98123.35
2024-01-17T03:12:11.097Z,98125.61
2024-01-17T03:13:11.062Z,98118.29
2024-01-17T03:14:11.068Z,98116.43
2024-01-17T03:15:11.131Z,98120.14
2024-01-17T03:16:11.063Z,98115.94
2024-01-17T03:17:11.062Z,98110.70
2024-01-17T03:18:13.198Z,98109.29
2024-01-17T03:19:11.240Z,98110.73
2024-01-17T03:20:11.065Z,98109.03
2024-01-17T03:21:11.128Z,98108.54
2024-01-17T03:22:11.071Z,98105.23
2024-01-17T03:23:11.067Z,98103.64
2024-01-17T03:24:11.127Z,98098.19
2024-01-17T03:25:11.085Z,98102.55
2024-01-17T03:26:11.071Z,98098.82
2024-01-17T03:27:11.114Z,98099.43
2024-01-17T03:28:11.080Z,98100.53
2024-01-17T03:29:11.069Z,98101.44
2024-01-17T03:30:11.204Z,98103.01
2024-01-17T03:31:11.116Z,98098.54
2024-01-17T03:32:11.073Z,98099.20
2024-01-17T03:33:11.197Z,98094.46
2024-01-17T03:34:11.204Z,98093.03
2024-01-17T03:35:11.106Z,98091.34
2024-01-17T03:36:11.337Z,98092.23
2024-01-17T03:37:11.077Z,98085.15
2024-01-17T03:38:11.079Z,98081.42
2024-01-17T03:39:11.187Z,98079.41
2024-01-17T03:40:11.091Z,98071.09
2024-01-17T03:41:11.080Z,98072.26
2024-01-17T03:42:11.104Z,98070.71
2024-01-17T03:43:11.117Z,98073.20
2024-01-17T03:44:11.088Z,98070.88
2024-01-17T03:45:11.256Z,98069.94
2024-01-17T03:46:11.082Z,98065.86
2024-01-17T03:47:11.087Z,98059.61
2024-01-17T03:48:11.210Z,98054.78
2024-01-17T03:49:11.213Z,98054.50
2024-01-17T03:50:11.089Z,98043.75
2024-01-17T03:51:11.231Z,98044.79
2024-01-17T03:52:11.228Z,98041.70
2024-01-17T03:53:11.088Z,98045.83
2024-01-17T03:54:11.153Z,98046.11
2024-01-17T03:55:11.080Z,98047.69
2024-01-17T03:56:11.087Z,98043.99
2024-01-17T03:57:11.185Z,98039.66
2024-01-17T03:58:11.084Z,98036.09
2024-01-17T03:59:11.095Z,98035.38
2024-01-17T04:00:11.160Z,98029.65
2024-01-17T04:01:13.113Z,98030.36
2024-01-17T04:02:11.088Z,98028.24
2024-01-17T04:03:13.223Z,98028.04
2024-01-17T04:04:11.192Z,98031.67
2024-01-17T04:05:11.190Z,98024.05
2024-01-17T04:06:11.145Z,98023.53
2024-01-17T04:07:11.265Z,98021.07
2024-01-17T04:08:11.106Z,98021.18
2024-01-17T04:09:11.136Z,98018.64
2024-01-17T04:10:11.103Z,98018.19
2024-01-17T04:11:11.087Z,98019.73
2024-01-17T04:12:11.243Z,98016.02
2024-01-17T04:13:11.092Z,98014.88
2024-01-17T04:14:11.091Z,98012.77
2024-01-17T04:15:11.229Z,98013.80
2024-01-17T04:16:11.088Z,98014.70
2024-01-17T04:17:11.089Z,98017.54
2024-01-17T04:18:11.252Z,98017.91
2024-01-17T04:19:11.327Z,98017.43
2024-01-17T04:20:11.095Z,98011.52
2024-01-17T04:21:15.113Z,98006.75
2024-01-17T04:22:11.087Z,98006.54
2024-01-17T04:23:11.093Z,98002.39
2024-01-17T04:24:11.172Z,97997.91
2024-01-17T04:25:11.095Z,97998.56
2024-01-17T04:26:11.090Z,97993.73
2024-01-17T04:27:11.189Z,97992.71
2024-01-17T04:28:11.117Z,97990.59
2024-01-17T04:29:11.085Z,97988.66
2024-01-17T04:30:13.265Z,97986.15
2024-01-17T04:31:11.121Z,97982.31
2024-01-17T04:32:11.085Z,97979.03
2024-01-17T04:33:11.259Z,97981.85
2024-01-17T04:34:11.367Z,97978.36
2024-01-17T04:35:11.077Z,97974.69
2024-01-17T04:36:11.167Z,97977.00
2024-01-17T04:37:11.070Z,97977.39
2024-01-17T04:38:11.079Z,97976.04
2024-01-17T04:39:11.189Z,97979.73
2024-01-17T04:40:11.089Z,97976.36
2024-01-17T04:41:11.092Z,97976.47
2024-01-17T04:42:11.285Z,97972.33
2024-01-17T04:43:11.069Z,97972.21
2024-01-17T04:44:11.184Z,97972.61
2024-01-17T04:45:11.105Z,97968.86
2024-01-17T04:46:11.070Z,97970.26
2024-01-17T04:47:11.083Z,97971.88
2024-01-17T04:48:12.164Z,97967.15
2024-01-17T04:49:11.265Z,97966.93
2024-01-17T04:50:11.135Z,97966.43
2024-01-17T04:51:13.498Z,97967.67
2024-01-17T04:52:11.054Z,97968.54
2024-01-17T04:53:11.074Z,97967.36
2024-01-17T04:54:11.067Z,97963.06
2024-01-17T04:55:11.087Z,97962.53
2024-01-17T04:56:11.056Z,97964.58
2024-01-17T04:57:11.147Z,97963.72
2024-01-17T04:58:11.066Z,97959.52
2024-01-17T04:59:11.066Z,97957.10
2024-01-17T05:00:11.111Z,97958.21
2024-01-17T05:01:13.104Z,97953.92
2024-01-17T05:02:11.063Z,97955.67
2024-01-17T05:03:11.103Z,97954.34
2024-01-17T05:04:11.076Z,97954.35
2024-01-17T05:05:11.142Z,97954.35
2024-01-17T05:06:11.237Z,97951.82
2024-01-17T05:07:11.063Z,97954.73
2024-01-17T05:08:11.063Z,97957.93
2024-01-17T05:09:13.145Z,97948.80
2024-01-17T05:10:11.059Z,97952.72
2024-01-17T05:11:11.078Z,97949.55
2024-01-17T05:12:12.821Z,97944.35
2024-01-17T05:13:11.062Z,97943.39
2024-01-17T05:14:11.082Z,97941.36
2024-01-17T05:15:11.105Z,97941.62
2024-01-17T05:16:11.063Z,97939.80
2024-01-17T05:17:11.135Z,97935.61
2024-01-17T05:18:11.158Z,97935.03
2024-01-17T05:19:13.696Z,97932.77
2024-01-17T05:20:11.059Z,97929.91
2024-01-17T05:21:11.078Z,97931.10
2024-01-17T05:22:11.067Z,97928.63
2024-01-17T05:23:11.063Z,97928.36
2024-01-17T05:24:11.142Z,97930.19
2024-01-17T05:25:11.061Z,97928.80
2024-01-17T05:26:11.065Z,97928.36
2024-01-17T05:27:11.180Z,97928.37
2024-01-17T05:28:11.064Z,97929.36
2024-01-17T05:29:11.060Z,97923.86
2024-01-17T05:30:14.791Z,97921.96
2024-01-17T05:31:13.398Z,97917.65
2024-01-17T05:32:11.084Z,97915.83
2024-01-17T05:33:11.228Z,97908.68
2024-01-17T05:34:11.185Z,97913.46
2024-01-17T05:35:11.063Z,97909.79
2024-01-17T05:36:11.127Z,97908.51
2024-01-17T05:37:11.062Z,97911.96
2024-01-17T05:38:11.062Z,97916.32
2024-01-17T05:39:11.091Z,97914.37
2024-01-17T05:40:11.067Z,97915.23
2024-01-17T05:41:11.067Z,97915.01
2024-01-17T05:42:11.136Z,97910.55
2024-01-17T05:43:11.105Z,97908.18
2024-01-17T05:44:12.676Z,97905.32
2024-01-17T05:45:11.124Z,97902.35
2024-01-17T05:46:11.065Z,97900.32
2024-01-17T05:47:11.068Z,97901.40
2024-01-17T05:48:11.240Z,97900.16
2024-01-17T05:49:11.212Z,97898.97
2024-01-17T05:50:13.790Z,97904.25
2024-01-17T05:51:11.102Z,97903.38
2024-01-17T05:52:11.075Z,97899.40
2024-01-17T05:53:11.065Z,97896.66
2024-01-17T05:54:11.131Z,97895.63
2024-01-17T05:55:11.080Z,97898.05
2024-01-17T05:56:11.066Z,97897.42
2024-01-17T05:57:11.100Z,97893.91
2024-01-17T05:58:11.060Z,97894.13
2024-01-17T05:59:11.079Z,97891.17
2024-01-17T06:00:12.426Z,97891.28
2024-01-17T06:01:11.086Z,97890.52
2024-01-17T06:02:11.073Z,97888.47
2024-01-17T06:03:11.125Z,97884.42
2024-01-17T06:04:11.104Z,97884.48
2024-01-17T06:05:11.074Z,97886.05
2024-01-17T06:06:11.250Z,97885.88
2024-01-17T06:07:11.092Z,97889.55
2024-01-17T06:08:11.092Z,97891.65
2024-01-17T06:09:12.130Z,97890.89
2024-01-17T06:10:11.065Z,97891.92
2024-01-17T06:11:11.082Z,97890.26
2024-01-17T06:12:11.175Z,97893.11
2024-01-17T06:13:11.070Z,97897.25
2024-01-17T06:14:13.349Z,97894.88
2024-01-17T06:15:11.340Z,97894.23
2024-01-17T06:16:11.076Z,97893.38
2024-01-17T06:17:11.070Z,97894.28
2024-01-17T06:18:11.119Z,97895.20
2024-01-17T06:19:11.098Z,97892.79
2024-01-17T06:20:11.185Z,97889.39
2024-01-17T06:21:11.134Z,97887.01
2024-01-17T06:22:11.076Z,97886.48
2024-01-17T06:23:11.078Z,97884.70
2024-01-17T06:24:11.144Z,97886.70
2024-01-17T06:25:11.075Z,97886.04
2024-01-17T06:26:11.068Z,97883.35
2024-01-17T06:27:11.104Z,97887.72
2024-01-17T06:28:11.065Z,97885.62
2024-01-17T06:29:11.085Z,97883.47
2024-01-17T06:30:11.267Z,97880.98
2024-01-17T06:31:11.134Z,97876.77
2024-01-17T06:32:11.097Z,97876.66
2024-01-17T06:33:11.202Z,97875.05
2024-01-17T06:34:11.228Z,97870.46
2024-01-17T06:35:11.080Z,97870.25
2024-01-17T06:36:11.184Z,97867.14
2024-01-17T06:37:11.066Z,97865.03
2024-01-17T06:38:11.085Z,97866.98
2024-01-17T06:39:11.133Z,97867.25
2024-01-17T06:40:11.081Z,97869.34
2024-01-17T06:41:11.085Z,97865.21
2024-01-17T06:42:11.156Z,97861.10
2024-01-17T06:43:11.065Z,97857.54
2024-01-17T06:44:11.084Z,97854.91
2024-01-17T06:45:11.113Z,97850.05
2024-01-17T06:46:11.076Z,97853.12
2024-01-17T06:47:11.070Z,97856.15
2024-01-17T06:48:11.269Z,97856.43
2024-01-17T06:49:11.249Z,97857.76
2024-01-17T06:50:11.198Z,97865.85
2024-01-17T06:51:11.126Z,97861.05
2024-01-17T06:52:11.073Z,97863.48
2024-01-17T06:53:11.078Z,97866.70
2024-01-17T06:54:11.209Z,97863.26
2024-01-17T06:55:11.068Z,97860.19
2024-01-17T06:56:11.068Z,97860.58
2024-01-17T06:57:12.101Z,97857.88
2024-01-17T06:58:11.067Z,97858.63
2024-01-17T06:59:11.073Z,97860.78
2024-01-17T07:00:11.191Z,97859.66
2024-01-17T07:01:11.131Z,97861.97
2024-01-17T07:02:11.066Z,97860.25
2024-01-17T07:03:11.134Z,97862.24
2024-01-17T07:04:11.129Z,97865.46
2024-01-17T07:05:11.107Z,97865.73
2024-01-17T07:06:13.290Z,97862.00
2024-01-17T07:07:11.075Z,97861.41
2024-01-17T07:08:11.176Z,97856.13
2024-01-17T07:09:11.094Z,97860.83
2024-01-17T07:10:11.076Z,97857.33
2024-01-17T07:11:11.072Z,97857.43
2024-01-17T07:12:11.078Z,97863.24
2024-01-17T07:13:11.072Z,97864.38
2024-01-17T07:14:11.078Z,97863.99
2024-01-17T07:15:11.230Z,97864.42
2024-01-17T07:16:11.070Z,97864.96
2024-01-17T07:17:11.073Z,97863.50
2024-01-17T07:18:11.142Z,97862.54
2024-01-17T07:19:11.077Z,97862.50
2024-01-17T07:20:11.083Z,97865.50
2024-01-17T07:21:11.124Z,97866.96
2024-01-17T07:22:11.085Z,97863.50
2024-01-17T07:23:11.069Z,97861.36
2024-01-17T07:24:11.157Z,97860.12
2024-01-17T07:25:11.079Z,97860.83
2024-01-17T07:26:11.076Z,97856.26
2024-01-17T07:27:11.158Z,97856.68
2024-01-17T07:28:11.078Z,97856.36
2024-01-17T07:29:11.073Z,97855.60
2024-01-17T07:30:11.234Z,97858.62
2024-01-17T07:31:11.072Z,97860.35
2024-01-17T07:32:11.091Z,97863.14
2024-01-17T07:33:11.246Z,97866.01
2024-01-17T07:34:11.242Z,97866.75
2024-01-17T07:35:11.085Z,97865.48
2024-01-17T07:36:11.127Z,97864.34
2024-01-17T07:37:14.276Z,97869.99
2024-01-17T07:38:11.074Z,97871.29
2024-01-17T07:39:11.167Z,97870.36
2024-01-17T07:40:11.076Z,97871.60
2024-01-17T07:41:11.079Z,97873.33
2024-01-17T07:42:11.098Z,97876.34
2024-01-17T07:43:11.086Z,97878.17
2024-01-17T07:44:11.072Z,97879.37
2024-01-17T07:45:11.190Z,97881.46
2024-01-17T07:46:11.079Z,97884.11
2024-01-17T07:47:11.084Z,97879.41
2024-01-17T07:48:11.232Z,97880.77
2024-01-17T07:49:11.347Z,97876.77
2024-01-17T07:50:11.063Z,97877.95
2024-01-17T07:51:11.250Z,97876.29
2024-01-17T07:52:11.064Z,97878.12
2024-01-17T07:53:12.058Z,97878.02
2024-01-17T07:54:11.099Z,97873.12
2024-01-17T07:55:11.062Z,97877.52
2024-01-17T07:56:11.089Z,97879.25
2024-01-17T07:57:11.096Z,97878.93
2024-01-17T07:58:11.057Z,97878.02
2024-01-17T07:59:11.053Z,97880.00
2024-01-17T08:00:11.147Z,97879.95
2024-01-17T08:01:11.096Z,97882.54
2024-01-17T08:02:11.128Z,97881.03
2024-01-17T08:03:11.177Z,97879.26
2024-01-17T08:04:11.209Z,97882.70
2024-01-17T08:05:11.079Z,97879.21
2024-01-17T08:06:11.173Z,97884.95
2024-01-17T08:07:11.092Z,97886.79
2024-01-17T08:08:11.066Z,97886.48
2024-01-17T08:09:15.117Z,97884.70
2024-01-17T08:10:11.062Z,97885.94
2024-01-17T08:11:11.067Z,97889.28
2024-01-17T08:12:11.126Z,97883.83
2024-01-17T08:13:11.066Z,97883.94
2024-01-17T08:14:11.061Z,97881.94
2024-01-17T08:15:11.319Z,97882.64
2024-01-17T08:16:11.058Z,97883.50
2024-01-17T08:17:11.062Z,97880.82
2024-01-17T08:18:11.218Z,97883.73
2024-01-17T08:19:11.247Z,97884.10
2024-01-17T08:20:11.066Z,97882.38
2024-01-17T08:21:11.110Z,97886.79
2024-01-17T08:22:11.069Z,97885.38
2024-01-17T08:23:11.064Z,97889.49
2024-01-17T08:24:11.125Z,97890.02
2024-01-17T08:25:11.083Z,97888.88
2024-01-17T08:26:11.067Z,97890.61
2024-01-17T08:27:11.176Z,97886.19
2024-01-17T08:28:11.064Z,97893.62
2024-01-17T08:29:11.186Z,97890.08
2024-01-17T08:30:11.621Z,97886.80
2024-01-17T08:31:11.087Z,97887.82
2024-01-17T08:32:11.129Z,97886.62
2024-01-17T08:33:11.201Z,97886.89
2024-01-17T08:34:11.187Z,97886.36
2024-01-17T08:35:11.122Z,97886.84
2024-01-17T08:36:12.089Z,97884.38
2024-01-17T08:37:11.074Z,97884.20
2024-01-17T08:38:11.072Z,97878.54
2024-01-17T08:39:11.105Z,97878.12
2024-01-17T08:40:11.075Z,97875.58
2024-01-17T08:41:11.073Z,97869.07
2024-01-17T08:42:11.175Z,97868.31
2024-01-17T08:43:11.069Z,97869.11
2024-01-17T08:44:11.069Z,97871.12
2024-01-17T08:45:11.099Z,97877.04
2024-01-17T08:46:11.064Z,97878.59
2024-01-17T08:47:11.075Z,97884.62
2024-01-17T08:48:11.144Z,97880.25
2024-01-17T08:49:11.140Z,97878.74
2024-01-17T08:50:11.077Z,97877.00
2024-01-17T08:51:11.115Z,97874.95
2024-01-17T08:52:11.082Z,97875.18
2024-01-17T08:53:11.089Z,97873.71
2024-01-17T08:54:11.076Z,97876.66
2024-01-17T08:55:13.065Z,97880.38
2024-01-17T08:56:11.072Z,97880.92
2024-01-17T08:57:11.156Z,97882.96
2024-01-17T08:58:11.068Z,97881.13
2024-01-17T08:59:11.074Z,97881.79
2024-01-17T09:00:11.104Z,97880.97
2024-01-17T09:01:11.092Z,97878.73
2024-01-17T09:02:11.070Z,97877.59
2024-01-17T09:03:11.110Z,97876.40
2024-01-17T09:04:11.075Z,97874.69
2024-01-17T09:05:11.115Z,97873.68
2024-01-17T09:06:11.106Z,97875.17
2024-01-17T09:07:11.123Z,97876.79
2024-01-17T09:08:11.127Z,97874.01
2024-01-17T09:09:11.091Z,97876.84
2024-01-17T09:10:11.061Z,97875.23
2024-01-17T09:11:13.072Z,97879.07
2024-01-17T09:12:11.142Z,97875.82
2024-01-17T09:13:11.072Z,97873.30
2024-01-17T09:14:11.075Z,97871.24
2024-01-17T09:15:11.114Z,97870.07
2024-01-17T09:16:11.077Z,97868.67
2024-01-17T09:17:11.069Z,97865.87
2024-01-17T09:18:11.153Z,97866.84
2024-01-17T09:19:11.157Z,97869.47
2024-01-17T09:20:11.206Z,97866.79
2024-01-17T09:21:11.137Z,97872.38
2024-01-17T09:22:11.069Z,97869.97
2024-01-17T09:23:11.067Z,97869.53
2024-01-17T09:24:11.195Z,97867.06
2024-01-17T09:25:11.082Z,97867.87
2024-01-17T09:26:11.069Z,97866.09
2024-01-17T09:27:11.183Z,97863.41
2024-01-17T09:28:11.080Z,97863.25
2024-01-17T09:29:11.107Z,97858.66
2024-01-17T09:30:11.113Z,97863.14
2024-01-17T09:31:11.082Z,97859.91
2024-01-17T09:32:13.616Z,97858.84
2024-01-17T09:33:11.263Z,97861.04
2024-01-17T09:34:11.196Z,97864.82
2024-01-17T09:35:11.080Z,97865.19
2024-01-17T09:36:11.150Z,97865.02
2024-01-17T09:37:11.069Z,97864.22
2024-01-17T09:38:11.071Z,97864.16
2024-01-17T09:39:11.358Z,97863.63
2024-01-17T09:40:11.074Z,97862.40
2024-01-17T09:41:11.070Z,97864.71
2024-01-17T09:42:11.088Z,97860.25
2024-01-17T09:43:12.853Z,97856.80
2024-01-17T09:44:11.080Z,97859.96
2024-01-17T09:45:14.176Z,97859.70
2024-01-17T09:46:15.179Z,97858.89
2024-01-17T09:47:12.079Z,97862.12
2024-01-17T09:48:11.156Z,97856.79
2024-01-17T09:49:11.264Z,97859.38
2024-01-17T09:50:11.125Z,97856.58
2024-01-17T09:51:12.171Z,97863.14
2024-01-17T09:52:11.071Z,97861.37
2024-01-17T09:53:13.087Z,97863.30
2024-01-17T09:54:12.120Z,97864.93
2024-01-17T09:55:11.079Z,97867.33
2024-01-17T09:56:11.089Z,97868.58
2024-01-17T09:57:20.767Z,97869.12
2024-01-17T09:58:12.069Z,97867.35
2024-01-17T09:59:15.095Z,97869.88
2024-01-17T10:00:16.135Z,97865.63
2024-01-17T10:01:13.598Z,97869.89
2024-01-17T10:02:11.075Z,97872.36
2024-01-17T10:03:11.192Z,97871.78
2024-01-17T10:04:11.107Z,97872.09
2024-01-17T10:05:11.193Z,97873.17
2024-01-17T10:06:11.150Z,97868.97
2024-01-17T10:07:11.068Z,97871.34
2024-01-17T10:08:11.083Z,97876.39
2024-01-17T10:09:11.304Z,97877.68
2024-01-17T10:10:11.076Z,97875.70
2024-01-17T10:11:11.072Z,97875.96
2024-01-17T10:12:11.160Z,97875.75
2024-01-17T10:13:11.071Z,97875.37
2024-01-17T10:14:11.079Z,97876.77
2024-01-17T10:15:13.116Z,97873.23
2024-01-17T10:16:11.071Z,97873.75
2024-01-17T10:17:11.099Z,97873.82
2024-01-17T10:18:11.166Z,97876.88
2024-01-17T10:19:11.315Z,97878.50
2024-01-17T10:20:11.159Z,97875.53
2024-01-17T10:21:11.180Z,97880.61
2024-01-17T10:22:13.079Z,97883.89
2024-01-17T10:23:11.073Z,97881.74
2024-01-17T10:24:11.126Z,97882.01
2024-01-17T10:25:11.077Z,97880.83
2024-01-17T10:26:11.087Z,97883.25
2024-01-17T10:27:11.154Z,97885.78
2024-01-17T10:28:11.073Z,97882.32
2024-01-17T10:29:11.077Z,97879.64
2024-01-17T10:30:12.177Z,97883.78
2024-01-17T10:31:13.089Z,97880.94
2024-01-17T10:32:11.091Z,97881.15
2024-01-17T10:33:11.219Z,97877.91
2024-01-17T10:34:11.250Z,97879.96
2024-01-17T10:35:11.179Z,97876.03
2024-01-17T10:36:12.138Z,97873.55
2024-01-17T10:37:11.074Z,97878.07
2024-01-17T10:38:11.078Z,97879.43
2024-01-17T10:39:11.142Z,97878.13
2024-01-17T10:40:13.219Z,97879.16
2024-01-17T10:41:11.069Z,97877.85
2024-01-17T10:42:19.136Z,97874.57
2024-01-17T10:43:17.070Z,97875.76
2024-01-17T10:44:11.066Z,97874.57
2024-01-17T10:45:15.144Z,97877.69
2024-01-17T10:46:11.091Z,97881.90
2024-01-17T10:47:11.751Z,97882.27
2024-01-17T10:48:11.348Z,97881.91
2024-01-17T10:49:11.263Z,97885.71
2024-01-17T10:50:11.056Z,97885.41
2024-01-17T10:51:11.151Z,97885.35
2024-01-17T10:52:17.072Z,97886.69
2024-01-17T10:53:11.061Z,97889.55
2024-01-17T10:54:15.074Z,97890.18
2024-01-17T10:55:11.067Z,97891.86
2024-01-17T10:56:11.061Z,97889.22
2024-01-17T10:57:11.188Z,97891.71
2024-01-17T10:58:11.061Z,97889.55
2024-01-17T10:59:13.053Z,97889.71
2024-01-17T11:00:15.132Z,97893.25
2024-01-17T11:01:15.063Z,97891.81
2024-01-17T11:02:18.057Z,97889.64
2024-01-17T11:03:15.126Z,97888.94
2024-01-17T11:04:15.115Z,97891.55
2024-01-17T11:05:14.063Z,97891.25
2024-01-17T11:06:11.113Z,97895.41
2024-01-17T11:07:11.111Z,97893.78
2024-01-17T11:08:11.072Z,97896.21
2024-01-17T11:09:11.162Z,97901.11
2024-01-17T11:10:11.057Z,97902.72
2024-01-17T11:11:11.069Z,97900.74
2024-01-17T11:12:11.132Z,97892.82
2024-01-17T11:13:11.058Z,97898.05
2024-01-17T11:14:11.060Z,97899.75
2024-01-17T11:15:11.100Z,97900.19
2024-01-17T11:16:12.065Z,97899.59
2024-01-17T11:17:15.181Z,97894.14
2024-01-17T11:18:13.746Z,97896.01
2024-01-17T11:19:11.290Z,97895.74
2024-01-17T11:20:13.265Z,97888.96
2024-01-17T11:21:11.112Z,97889.01
2024-01-17T11:22:11.062Z,97890.96
2024-01-17T11:23:15.064Z,97889.81
2024-01-17T11:24:19.080Z,97890.84
2024-01-17T11:25:19.065Z,97893.10
2024-01-17T11:26:18.119Z,97893.70
2024-01-17T11:27:19.143Z,97895.27
2024-01-17T11:28:19.064Z,97897.63
2024-01-17T11:29:21.091Z,97897.78
2024-01-17T11:30:19.142Z,97895.54
2024-01-17T11:31:19.067Z,97893.55
2024-01-17T11:32:21.093Z,97894.47
2024-01-17T11:33:11.139Z,97889.60
2024-01-17T11:34:11.259Z,97890.09
2024-01-17T11:35:11.065Z,97888.85
2024-01-17T11:36:15.120Z,97889.92
2024-01-17T11:37:11.075Z,97890.96
2024-01-17T11:38:21.081Z,97888.91
2024-01-17T11:39:11.091Z,97888.38
2024-01-17T11:40:11.076Z,97887.85
2024-01-17T11:41:14.066Z,97891.03
2024-01-17T11:42:12.158Z,97885.96
2024-01-17T11:43:11.063Z,97890.49
2024-01-17T11:44:11.074Z,97889.96